Time;durP1;ratioP1;P1;durP2;ratioP2;P2;SDS_P1;SDS_P2;PMS_P1;PMS_P2;Temp;Humidity;BMP_temperature;BMP_pressure;BME280_temperature;BME280_humidity;BME280_pressure;Samples;Min_cycle;Max_cycle;Signal;HPM_P1;HPM_P2
2022/05/18 00:01:43;;;;;;;8.73;6.32;;;22.00;42.00;;;;;;5081520;28;20085;-69
2022/05/18 00:04:10;;;;;;;7.45;5.97;;;22.00;42.20;;;;;;5078896;28;20036;-69
2022/05/18 00:06:36;;;;;;;6.68;5.70;;;22.00;42.00;;;;;;5086789;28;20028;-69
2022/05/18 00:09:03;;;;;;;8.60;6.00;;;22.00;42.00;;;;;;5082773;28;20553;-69
2022/05/18 00:11:33;;;;;;;8.13;6.45;;;22.00;42.40;;;;;;5076034;28;20056;-69
2022/05/18 00:14:00;;;;;;;9.57;6.65;;;22.00;42.10;;;;;;5079863;28;20069;-69
2022/05/18 00:16:27;;;;;;;10.02;6.15;;;22.10;42.40;;;;;;5083739;28;20038;-69
2022/05/18 00:18:54;;;;;;;7.72;6.82;;;22.00;42.30;;;;;;5076459;28;20043;-69
2022/05/18 00:21:21;;;;;;;13.23;5.90;;;22.10;42.30;;;;;;5078682;28;20025;-69
2022/05/18 00:23:47;;;;;;;8.38;6.13;;;22.10;42.80;;;;;;5082952;28;20107;-69
2022/05/18 00:26:14;;;;;;;11.40;5.60;;;22.10;42.90;;;;;;5085361;28;20029;-69
2022/05/18 00:28:40;;;;;;;8.77;6.43;;;22.00;42.80;;;;;;5081284;28;20016;-70
2022/05/18 00:31:07;;;;;;;11.75;6.55;;;22.10;42.90;;;;;;5078217;28;20052;-70
2022/05/18 00:33:33;;;;;;;13.45;6.53;;;22.00;42.90;;;;;;5085585;28;20028;-69
2022/05/18 00:36:00;;;;;;;12.40;6.07;;;22.00;42.80;;;;;;5085500;28;20028;-69
2022/05/18 00:38:27;;;;;;;9.38;6.35;;;22.10;42.80;;;;;;5080593;28;20032;-70
2022/05/18 00:40:54;;;;;;;10.27;6.20;;;22.00;42.90;;;;;;5083069;28;20048;-69
2022/05/18 00:43:38;;;;;;;15.07;6.13;;;22.10;43.00;;;;;;5084477;28;20024;-69
2022/05/18 00:46:07;;;;;;;19.83;7.63;;;22.10;42.60;;;;;;5084344;28;20039;-69
2022/05/18 00:48:34;;;;;;;16.38;6.63;;;22.00;42.20;;;;;;5081577;28;20732;-69
2022/05/18 00:51:04;;;;;;;16.58;6.55;;;22.00;42.00;;;;;;5085478;28;20091;-69
2022/05/18 00:53:52;;;;;;;19.35;7.07;;;22.10;42.00;;;;;;5080584;28;20035;-68
2022/05/18 00:56:32;;;;;;;16.10;7.43;;;22.10;41.60;;;;;;5081847;28;20494;-69
2022/05/18 00:59:05;;;;;;;12.07;7.07;;;22.20;41.80;;;;;;5080620;28;20024;-69
2022/05/18 01:01:32;;;;;;;19.58;7.35;;;22.20;41.70;;;;;;5083408;28;20119;-69
2022/05/18 01:04:01;;;;;;;18.73;8.13;;;22.20;41.70;;;;;;5073783;28;20063;-70
2022/05/18 01:07:07;;;;;;;14.23;7.47;;;22.20;41.40;;;;;;5080164;28;20487;-69
2022/05/18 01:09:41;;;;;;;19.65;6.68;;;22.20;41.50;;;;;;5080230;28;20032;-69
2022/05/18 01:12:12;;;;;;;27.47;7.33;;;22.30;41.50;;;;;;5081776;28;20128;-70
2022/05/18 01:14:52;;;;;;;20.42;8.23;;;22.30;41.30;;;;;;5074731;28;20012;-70
2022/05/18 01:17:26;;;;;;;30.33;7.10;;;22.30;41.30;;;;;;5082481;28;20384;-70
2022/05/18 01:19:58;;;;;;;22.23;7.05;;;22.30;41.30;;;;;;5083037;28;20379;-69
2022/05/18 01:22:42;;;;;;;11.57;7.10;;;22.30;41.30;;;;;;5079484;28;20024;-69
2022/05/18 01:25:32;;;;;;;13.55;6.85;;;22.30;41.30;;;;;;5080785;28;20047;-70
2022/05/18 01:28:01;;;;;;;22.95;7.95;;;22.30;41.30;;;;;;5079627;28;20510;-70
2022/05/18 01:30:29;;;;;;;10.73;6.60;;;22.30;41.30;;;;;;5079857;28;20030;-70
2022/05/18 01:32:57;;;;;;;14.70;6.97;;;22.30;41.30;;;;;;5078216;28;20485;-70
2022/05/18 01:35:30;;;;;;;15.43;6.35;;;22.30;41.50;;;;;;5076331;28;20086;-70
2022/05/18 01:37:57;;;;;;;11.93;6.22;;;22.30;42.10;;;;;;5084156;28;20474;-70
2022/05/18 01:40:23;;;;;;;19.38;6.88;;;22.30;41.50;;;;;;5079983;28;20020;-70
2022/05/18 01:42:56;;;;;;;12.70;6.82;;;22.30;41.50;;;;;;5079038;28;20020;-70
2022/05/18 01:45:22;;;;;;;22.58;7.13;;;22.30;41.60;;;;;;5081719;28;20042;-70
2022/05/18 01:47:50;;;;;;;15.43;7.28;;;22.30;41.60;;;;;;5081942;28;20073;-70
2022/05/18 01:50:25;;;;;;;22.85;7.35;;;22.30;41.60;;;;;;5079088;28;20023;-70
2022/05/18 01:52:51;;;;;;;19.02;7.90;;;22.30;41.70;;;;;;5078121;28;20402;-70
2022/05/18 01:55:18;;;;;;;17.88;7.85;;;22.30;41.90;;;;;;5076624;28;20032;-69
2022/05/18 01:57:45;;;;;;;18.05;7.47;;;22.30;42.00;;;;;;5075550;28;20024;-69
2022/05/18 02:00:12;;;;;;;18.08;6.43;;;22.20;41.90;;;;;;5081404;28;20027;-69
2022/05/18 02:02:41;;;;;;;18.73;8.30;;;22.20;42.10;;;;;;5080400;28;20449;-69
2022/05/18 02:05:08;;;;;;;16.15;8.00;;;22.20;42.30;;;;;;5076056;28;20029;-69
2022/05/18 02:07:35;;;;;;;12.88;6.95;;;22.20;42.60;;;;;;5075887;28;20020;-69
2022/05/18 02:10:02;;;;;;;14.30;7.07;;;22.20;42.70;;;;;;5080801;28;20052;-70
2022/05/18 02:12:28;;;;;;;18.50;7.00;;;22.20;42.70;;;;;;5078355;28;20273;-70
2022/05/18 02:14:55;;;;;;;18.77;8.35;;;22.20;42.90;;;;;;5080175;28;20028;-69
2022/05/18 02:17:23;;;;;;;15.05;7.90;;;22.20;42.70;;;;;;5083622;28;20379;-69
2022/05/18 02:19:49;;;;;;;15.05;6.90;;;22.10;42.60;;;;;;5081577;28;20406;-69
2022/05/18 02:22:16;;;;;;;17.20;6.60;;;22.10;42.80;;;;;;5079942;28;20097;-69
2022/05/18 02:24:42;;;;;;;19.30;8.23;;;22.20;42.70;;;;;;5078409;28;20067;-69
2022/05/18 02:27:09;;;;;;;21.27;8.23;;;22.10;42.50;;;;;;5085225;28;20037;-69
2022/05/18 02:29:36;;;;;;;23.88;7.72;;;22.10;42.40;;;;;;5080395;28;20039;-69
2022/05/18 02:32:03;;;;;;;29.35;10.05;;;22.20;42.30;;;;;;5082530;28;20029;-69
2022/05/18 02:34:29;;;;;;;27.88;9.98;;;22.20;42.50;;;;;;5083819;28;20027;-69
2022/05/18 02:36:56;;;;;;;27.05;9.02;;;22.20;42.40;;;;;;5088945;28;20012;-69
2022/05/18 02:39:22;;;;;;;13.57;7.20;;;22.20;42.40;;;;;;5091041;28;20051;-69
2022/05/18 02:41:50;;;;;;;24.17;8.45;;;22.20;42.40;;;;;;5083627;28;20084;-69
2022/05/18 02:44:17;;;;;;;20.98;7.93;;;22.20;42.60;;;;;;5080946;28;20395;-69
2022/05/18 02:46:44;;;;;;;16.40;7.20;;;22.10;42.60;;;;;;5079352;28;20561;-69
2022/05/18 02:49:11;;;;;;;19.55;7.93;;;22.10;42.90;;;;;;5080320;28;21080;-70
2022/05/18 02:51:40;;;;;;;13.45;6.85;;;22.10;43.20;;;;;;5086777;28;20588;-69
2022/05/18 02:56:54;;;;;;;20.20;8.65;;;22.10;44.00;;;;;;5090111;28;20081;-69
2022/05/18 02:59:21;;;;;;;16.73;8.23;;;22.10;44.70;;;;;;5087802;28;20379;-69
2022/05/18 03:01:48;;;;;;;10.63;7.40;;;22.00;45.00;;;;;;5083831;28;20335;-69
2022/05/18 03:04:15;;;;;;;10.57;7.60;;;22.00;45.30;;;;;;5086361;28;20024;-69
2022/05/18 03:06:41;;;;;;;20.50;9.07;;;22.00;45.50;;;;;;5081925;28;20043;-69
2022/05/18 03:09:08;;;;;;;10.60;7.50;;;21.90;45.50;;;;;;5082939;28;20576;-70
2022/05/18 03:11:34;;;;;;;10.25;7.20;;;21.90;45.50;;;;;;5079652;28;20098;-69
2022/05/18 03:14:01;;;;;;;15.52;8.32;;;21.90;45.30;;;;;;5091243;28;20471;-68
2022/05/18 03:16:28;;;;;;;17.17;7.72;;;21.90;45.30;;;;;;5080507;28;20121;-68
2022/05/18 03:18:55;;;;;;;14.95;7.93;;;21.80;45.20;;;;;;5081624;28;20032;-69
2022/05/18 03:24:07;;;;;;;14.07;6.88;;;21.80;45.50;;;;;;5082935;28;20501;-68
2022/05/18 03:26:34;;;;;;;14.90;7.90;;;21.80;45.90;;;;;;5079865;28;20043;-68
2022/05/18 03:29:00;;;;;;;14.93;6.72;;;21.80;45.60;;;;;;5079966;28;20075;-68
2022/05/18 03:31:27;;;;;;;11.48;7.13;;;21.80;45.50;;;;;;5084248;28;20024;-68
2022/05/18 03:33:55;;;;;;;10.35;7.15;;;21.80;45.50;;;;;;5078323;28;20016;-68
2022/05/18 03:36:23;;;;;;;11.10;6.90;;;21.80;45.50;;;;;;5080444;28;20024;-68
2022/05/18 03:38:50;;;;;;;13.23;7.45;;;21.80;45.30;;;;;;5084496;28;20052;-69
2022/05/18 03:41:18;;;;;;;12.40;7.63;;;21.80;45.10;;;;;;5082123;28;20099;-69
2022/05/18 03:43:45;;;;;;;13.18;7.25;;;21.90;45.00;;;;;;5085570;28;20012;-69
2022/05/18 03:46:12;;;;;;;9.73;6.72;;;21.80;44.80;;;;;;5085518;28;20608;-69
2022/05/18 03:48:39;;;;;;;10.35;7.25;;;21.90;44.80;;;;;;5077061;28;20061;-69
2022/05/18 03:51:09;;;;;;;9.98;6.72;;;21.90;44.90;;;;;;5087865;28;20020;-69
2022/05/18 03:53:35;;;;;;;18.88;7.38;;;21.90;44.80;;;;;;5083063;28;20024;-69
2022/05/18 03:56:02;;;;;;;13.65;7.20;;;21.90;44.70;;;;;;5078345;28;20017;-69
2022/05/18 03:58:30;;;;;;;13.60;6.72;;;21.90;44.70;;;;;;5087215;28;20066;-69
2022/05/18 04:01:36;;;;;;;21.10;6.82;;;22.00;44.90;;;;;;5082331;28;20360;-68
2022/05/18 04:04:03;;;;;;;12.10;7.03;;;22.00;45.00;;;;;;5080951;28;20081;-69
2022/05/18 04:06:30;;;;;;;15.25;7.53;;;22.00;44.70;;;;;;5079408;28;20789;-68
2022/05/18 04:08:56;;;;;;;12.18;7.40;;;22.00;44.50;;;;;;5080648;28;20391;-69
2022/05/18 04:11:22;;;;;;;13.90;7.85;;;22.00;44.10;;;;;;5080495;28;20707;-69
2022/05/18 04:13:50;;;;;;;32.97;25.70;;;22.10;44.50;;;;;;5073891;28;20368;-68
2022/05/18 04:16:17;;;;;;;38.80;31.25;;;22.10;44.40;;;;;;5081534;28;20032;-69
2022/05/18 04:18:43;;;;;;;26.70;21.90;;;22.10;44.30;;;;;;5086256;28;20016;-69
2022/05/18 04:21:10;;;;;;;21.08;15.85;;;22.10;44.00;;;;;;5083294;28;20027;-70
2022/05/18 04:23:39;;;;;;;16.63;11.55;;;22.00;44.00;;;;;;5080161;28;20035;-69
2022/05/18 04:26:05;;;;;;;15.77;8.52;;;22.10;43.90;;;;;;5077093;28;20460;-68
2022/05/18 04:28:32;;;;;;;18.75;9.00;;;22.10;43.80;;;;;;5087084;28;20021;-68
2022/05/18 04:31:00;;;;;;;10.30;7.15;;;22.00;43.70;;;;;;5080867;28;20047;-68
2022/05/18 04:33:27;;;;;;;14.48;8.15;;;22.10;44.10;;;;;;5082550;28;20337;-68
2022/05/18 04:35:54;;;;;;;60.95;46.10;;;22.10;44.20;;;;;;5084615;28;20028;-68
2022/05/18 04:38:22;;;;;;;34.63;26.55;;;22.10;44.30;;;;;;5080939;28;20036;-68
2022/05/18 04:40:49;;;;;;;25.45;15.30;;;22.10;44.00;;;;;;5077798;28;20071;-68
2022/05/18 04:43:20;;;;;;;17.45;11.32;;;22.10;43.90;;;;;;5081197;28;20024;-69
2022/05/18 04:45:47;;;;;;;19.08;9.90;;;22.20;43.90;;;;;;5080071;28;20101;-69
2022/05/18 04:48:17;;;;;;;16.45;8.32;;;22.20;43.90;;;;;;5079807;28;20073;-70
2022/05/18 04:50:45;;;;;;;13.48;7.78;;;22.20;44.00;;;;;;5084644;28;20016;-70
2022/05/18 04:53:12;;;;;;;9.25;6.97;;;22.20;43.90;;;;;;5079047;28;20024;-70
2022/05/18 04:55:39;;;;;;;16.58;7.20;;;22.20;44.00;;;;;;5081985;28;20033;-71
2022/05/18 04:58:06;;;;;;;18.55;6.93;;;22.20;44.00;;;;;;5082912;28;20021;-69
2022/05/18 05:00:33;;;;;;;12.00;7.35;;;22.20;44.10;;;;;;5080500;28;20021;-69
2022/05/18 05:03:00;;;;;;;16.35;7.50;;;22.20;44.00;;;;;;5080961;28;20024;-69
2022/05/18 05:05:28;;;;;;;14.77;7.18;;;22.20;44.00;;;;;;5077156;28;20039;-69
2022/05/18 05:07:56;;;;;;;10.85;7.50;;;22.20;44.00;;;;;;5075284;28;20036;-69
2022/05/18 05:10:23;;;;;;;10.02;6.68;;;22.10;44.00;;;;;;5082234;28;20111;-69
2022/05/18 05:12:50;;;;;;;14.10;6.85;;;22.20;44.30;;;;;;5079138;28;20024;-69
2022/05/18 05:15:17;;;;;;;16.35;7.38;;;22.20;44.10;;;;;;5084163;28;20034;-69
2022/05/18 05:17:43;;;;;;;11.23;7.78;;;22.20;44.30;;;;;;5087483;28;20036;-69
2022/05/18 05:20:11;;;;;;;9.23;6.63;;;22.20;44.40;;;;;;5083447;28;20063;-69
2022/05/18 05:22:37;;;;;;;16.38;8.50;;;22.10;44.50;;;;;;5081576;28;20731;-67
2022/05/18 05:25:04;;;;;;;18.00;7.65;;;22.20;44.70;;;;;;5076650;28;20035;-68
2022/05/18 05:27:31;;;;;;;12.82;7.78;;;22.10;44.90;;;;;;5089595;28;20481;-69
2022/05/18 05:29:57;;;;;;;13.70;7.45;;;22.10;45.20;;;;;;5074788;28;20090;-68
2022/05/18 05:32:25;;;;;;;10.75;7.43;;;22.10;45.70;;;;;;5081788;28;20030;-68
2022/05/18 05:34:52;;;;;;;11.80;7.07;;;22.10;46.20;;;;;;5075526;28;20059;-69
2022/05/18 05:37:19;;;;;;;18.50;8.88;;;22.10;46.60;;;;;;5083215;28;20447;-68
2022/05/18 05:39:45;;;;;;;13.27;7.97;;;22.00;47.10;;;;;;5071711;28;20029;-67
2022/05/18 05:42:12;;;;;;;12.90;7.90;;;22.00;47.40;;;;;;5079941;28;20020;-67
2022/05/18 05:44:38;;;;;;;18.58;8.43;;;22.00;47.60;;;;;;5080230;28;20017;-67
2022/05/18 05:47:05;;;;;;;22.48;7.78;;;22.00;48.00;;;;;;5076101;28;20044;-67
2022/05/18 05:49:31;;;;;;;12.68;7.43;;;22.00;48.30;;;;;;5084244;28;20154;-68
2022/05/18 05:51:58;;;;;;;22.88;10.65;;;22.00;48.50;;;;;;5081421;28;20502;-68
2022/05/18 05:54:26;;;;;;;13.07;6.43;;;22.00;48.60;;;;;;5082758;28;20475;-68
2022/05/18 05:56:53;;;;;;;20.77;8.93;;;21.90;48.60;;;;;;5084740;28;20036;-69
2022/05/18 05:59:21;;;;;;;18.38;7.82;;;21.90;48.80;;;;;;5077689;28;20051;-69
2022/05/18 06:01:48;;;;;;;15.55;7.93;;;21.90;49.00;;;;;;5078150;28;20024;-70
2022/05/18 06:04:14;;;;;;;15.00;8.52;;;21.90;49.10;;;;;;5086066;28;20479;-70
2022/05/18 06:06:41;;;;;;;9.40;7.53;;;21.90;49.90;;;;;;5083419;28;20043;-69
2022/05/18 06:09:08;;;;;;;16.13;8.07;;;21.80;49.50;;;;;;5084165;28;20077;-69
2022/05/18 06:11:36;;;;;;;14.63;6.88;;;21.90;49.70;;;;;;5081381;28;20536;-69
2022/05/18 06:14:03;;;;;;;12.93;8.02;;;21.80;49.70;;;;;;5077270;28;20024;-69
2022/05/18 06:16:30;;;;;;;24.63;7.75;;;21.90;49.80;;;;;;5078735;28;20055;-69
2022/05/18 06:18:56;;;;;;;16.85;7.90;;;21.80;50.20;;;;;;5085533;28;20012;-69
2022/05/18 06:21:23;;;;;;;17.98;7.90;;;21.80;50.20;;;;;;5076533;28;20032;-68
2022/05/18 06:23:49;;;;;;;38.80;8.25;;;21.80;50.30;;;;;;5081657;28;20402;-68
2022/05/18 06:26:16;;;;;;;45.67;8.52;;;21.80;50.40;;;;;;5076926;28;20032;-69
2022/05/18 06:28:42;;;;;;;27.40;8.05;;;21.80;50.60;;;;;;5080453;28;20028;-69
2022/05/18 06:31:09;;;;;;;15.52;7.57;;;21.80;50.70;;;;;;5077828;28;20524;-69
2022/05/18 06:33:36;;;;;;;15.57;7.35;;;21.80;50.60;;;;;;5079553;28;20036;-69
2022/05/18 06:36:03;;;;;;;18.30;6.43;;;21.80;50.70;;;;;;5076649;28;20436;-69
2022/05/18 06:38:30;;;;;;;18.73;7.28;;;21.80;50.70;;;;;;5075551;28;20029;-70
2022/05/18 06:43:42;;;;;;;;;;;21.80;51.60;;;;;;5071588;28;20035;-69
2022/05/18 06:46:09;;;;;;;20.55;6.70;;;21.80;51.60;;;;;;5078478;28;19923;-69
2022/05/18 06:48:36;;;;;;;14.70;8.82;;;21.80;51.50;;;;;;5081270;28;20411;-69
2022/05/18 06:51:02;;;;;;;25.10;7.63;;;21.80;51.40;;;;;;5080554;28;20218;-69
2022/05/18 06:53:29;;;;;;;26.20;7.97;;;21.80;51.60;;;;;;5110215;28;20029;-68
2022/05/18 06:55:55;;;;;;;25.63;8.05;;;21.80;52.20;;;;;;5076822;28;20085;-69
2022/05/18 06:58:22;;;;;;;35.97;7.75;;;21.80;51.90;;;;;;5083623;28;20028;-69
2022/05/18 07:00:48;;;;;;;21.85;7.80;;;21.80;52.20;;;;;;5073738;28;20031;-68
2022/05/18 07:03:15;;;;;;;22.65;8.60;;;21.80;52.30;;;;;;5081979;28;20028;-69
2022/05/18 07:05:41;;;;;;;16.48;6.95;;;21.80;52.30;;;;;;5081550;28;20036;-68
2022/05/18 07:08:08;;;;;;;13.00;7.03;;;21.80;52.60;;;;;;5084681;28;20016;-68
2022/05/18 07:10:34;;;;;;;15.20;7.15;;;21.80;53.20;;;;;;5075885;28;20036;-69
2022/05/18 07:13:01;;;;;;;15.95;7.15;;;21.80;53.20;;;;;;5079495;28;20121;-68
2022/05/18 07:15:27;;;;;;;17.38;7.10;;;21.90;53.20;;;;;;5075022;28;20074;-69
2022/05/18 07:17:54;;;;;;;18.13;8.40;;;21.80;53.30;;;;;;5083253;28;20035;-68
2022/05/18 07:20:20;;;;;;;14.25;8.07;;;21.80;53.50;;;;;;5088551;28;20024;-68
2022/05/18 07:22:47;;;;;;;24.67;7.93;;;21.90;53.50;;;;;;5083930;28;20020;-68
2022/05/18 07:25:13;;;;;;;16.75;7.03;;;21.90;53.60;;;;;;5086127;28;20030;-69
2022/05/18 07:27:41;;;;;;;15.27;6.80;;;21.90;54.00;;;;;;5079438;28;20105;-68
2022/05/18 07:30:08;;;;;;;24.67;7.80;;;21.90;54.00;;;;;;5082687;28;20350;-69
2022/05/18 07:32:36;;;;;;;20.83;8.00;;;21.90;54.20;;;;;;5076115;28;20074;-68
2022/05/18 07:35:04;;;;;;;13.68;7.40;;;21.90;54.20;;;;;;5084581;28;20547;-68
2022/05/18 07:37:30;;;;;;;15.57;7.07;;;21.90;54.30;;;;;;5081954;28;20124;-68
2022/05/18 07:39:56;;;;;;;16.00;7.30;;;21.90;54.40;;;;;;5078175;28;20020;-68
2022/05/18 07:42:23;;;;;;;15.50;7.75;;;22.00;54.60;;;;;;5088096;28;20521;-68
2022/05/18 07:44:49;;;;;;;13.93;6.53;;;21.90;54.60;;;;;;5085257;28;20391;-68
2022/05/18 07:47:16;;;;;;;14.63;7.13;;;21.90;54.60;;;;;;5079591;28;20036;-69
2022/05/18 07:49:43;;;;;;;22.38;7.13;;;21.90;54.60;;;;;;5077737;28;20021;-69
2022/05/18 07:52:11;;;;;;;9.73;7.05;;;21.90;54.70;;;;;;5084828;28;20032;-70
2022/05/18 07:54:38;;;;;;;10.85;6.20;;;22.00;54.80;;;;;;5079368;28;20077;-69
2022/05/18 07:57:09;;;;;;;15.50;6.50;;;21.90;54.90;;;;;;5075634;28;20099;-69
2022/05/18 07:59:36;;;;;;;9.57;6.78;;;21.90;54.90;;;;;;5078163;28;20025;-69
2022/05/18 08:02:02;;;;;;;13.80;6.93;;;22.00;55.00;;;;;;5076932;28;20032;-69
2022/05/18 08:04:29;;;;;;;14.40;6.80;;;21.90;55.00;;;;;;5083951;28;20052;-69
2022/05/18 08:06:55;;;;;;;14.70;5.50;;;22.00;55.10;;;;;;5080066;28;20361;-68
2022/05/18 08:09:22;;;;;;;10.13;5.50;;;21.90;55.00;;;;;;5083913;28;20530;-68
2022/05/18 08:17:23;;;;;;;12.10;6.30;;;22.00;55.00;;;;;;5085836;28;20422;-68
2022/05/18 08:19:49;;;;;;;8.20;5.20;;;22.00;54.90;;;;;;5077052;28;20509;-68
2022/05/18 08:22:19;;;;;;;13.20;5.75;;;22.00;54.80;;;;;;5080934;28;20016;-68
2022/05/18 08:24:46;;;;;;;11.07;5.75;;;22.00;54.80;;;;;;5079485;28;20020;-68
2022/05/18 08:27:15;;;;;;;13.00;6.32;;;22.00;54.80;;;;;;5078391;28;20089;-69
2022/05/18 08:29:41;;;;;;;9.90;6.30;;;22.00;54.30;;;;;;5080905;28;20102;-68
2022/05/18 08:32:08;;;;;;;11.95;5.15;;;22.00;53.80;;;;;;5081395;28;20024;-68
2022/05/18 08:34:34;;;;;;;11.23;5.72;;;22.00;53.60;;;;;;5078514;28;20028;-68
2022/05/18 08:37:01;;;;;;;20.45;6.13;;;22.00;53.90;;;;;;5081120;28;20016;-68
2022/05/18 08:39:28;;;;;;;9.18;5.30;;;22.00;54.00;;;;;;5084985;28;20044;-68
2022/05/18 08:41:57;;;;;;;12.57;4.80;;;22.00;53.60;;;;;;5079238;28;20684;-68
2022/05/18 08:44:35;;;;;;;10.18;5.07;;;22.00;53.30;;;;;;5077056;28;20483;-68
2022/05/18 08:47:05;;;;;;;8.88;4.93;;;22.00;53.20;;;;;;5078189;28;20044;-68
2022/05/18 08:49:55;;;;;;;11.20;5.60;;;22.00;53.20;;;;;;5081052;28;20025;-68
2022/05/18 08:52:25;;;;;;;13.02;6.28;;;22.00;53.30;;;;;;5081023;28;20029;-68
2022/05/18 08:55:28;;;;;;;23.73;6.03;;;22.00;53.50;;;;;;5078977;28;20068;-68
2022/05/18 08:57:58;;;;;;;32.03;6.78;;;22.00;54.50;;;;;;5077786;28;20024;-68
2022/05/18 09:00:36;;;;;;;20.05;6.78;;;22.00;54.80;;;;;;5077237;28;20024;-68
2022/05/18 09:03:10;;;;;;;19.88;4.90;;;22.00;55.70;;;;;;5082032;28;20166;-67
2022/05/18 09:05:58;;;;;;;23.58;6.20;;;22.00;57.00;;;;;;5079627;28;20414;-67
2022/05/18 09:08:26;;;;;;;14.13;5.13;;;22.00;56.60;;;;;;5079189;28;20043;-68
2022/05/18 09:10:53;;;;;;;13.80;6.25;;;22.10;56.80;;;;;;5080058;28;20024;-68
2022/05/18 09:13:20;;;;;;;18.42;6.22;;;22.10;56.90;;;;;;5081615;28;20039;-68
2022/05/18 09:16:09;;;;;;;14.60;6.13;;;22.10;57.70;;;;;;5078852;28;20100;-67
2022/05/18 09:18:50;;;;;;;17.08;5.75;;;22.10;57.70;;;;;;5074838;28;20158;-69
2022/05/18 09:21:32;;;;;;;15.90;6.43;;;22.10;58.10;;;;;;5077048;28;20020;-67
2022/05/18 09:24:05;;;;;;;11.88;4.88;;;22.10;58.60;;;;;;5079698;28;20023;-68
2022/05/18 09:27:00;;;;;;;18.42;5.55;;;22.10;59.50;;;;;;5078881;28;20502;-67
2022/05/18 09:29:34;;;;;;;17.08;5.18;;;22.10;60.20;;;;;;5081723;28;20116;-68
2022/05/18 09:32:22;;;;;;;26.05;5.80;;;22.10;60.30;;;;;;5083795;28;20066;-68
2022/05/18 09:34:55;;;;;;;19.88;6.40;;;22.20;61.60;;;;;;5076722;28;20518;-68
2022/05/18 09:38:02;;;;;;;17.58;5.97;;;22.10;61.90;;;;;;5079343;28;20074;-68
2022/05/18 09:40:34;;;;;;;20.48;6.22;;;22.20;62.80;;;;;;5071588;28;20037;-68
2022/05/18 09:43:22;;;;;;;16.98;5.60;;;22.20;64.20;;;;;;5077658;28;20035;-68
2022/05/18 09:45:49;;;;;;;14.20;5.40;;;22.20;64.60;;;;;;5079151;28;20043;-68
2022/05/18 09:48:22;;;;;;;15.82;5.78;;;22.20;65.30;;;;;;5077794;28;20069;-68
2022/05/18 09:50:50;;;;;;;14.15;6.10;;;22.20;65.60;;;;;;5081606;28;20124;-68
2022/05/18 09:53:20;;;;;;;17.73;5.45;;;22.20;65.90;;;;;;5081149;28;20059;-67
2022/05/18 09:55:49;;;;;;;9.85;4.82;;;22.20;66.60;;;;;;5074294;28;20105;-68
2022/05/18 09:58:24;;;;;;;11.55;4.75;;;22.20;66.70;;;;;;5077701;28;20081;-68
2022/05/18 10:07:27;;;;;;;20.13;6.00;;;22.20;67.10;;;;;;5080142;28;20120;-68
2022/05/18 10:07:30;;;;;;;20.60;5.10;;;22.20;68.20;;;;;;5081792;28;20089;-68
2022/05/18 10:10:08;;;;;;;16.88;4.95;;;22.30;68.60;;;;;;5081850;28;20029;-67
2022/05/18 10:12:43;;;;;;;16.10;5.43;;;22.30;68.90;;;;;;5084051;28;20028;-68
2022/05/18 10:15:25;;;;;;;20.65;5.35;;;22.30;68.90;;;;;;5084407;28;20030;-68
2022/05/18 10:18:19;;;;;;;15.18;4.53;;;22.30;69.00;;;;;;5085267;28;20040;-68
2022/05/18 10:21:04;;;;;;;14.13;5.53;;;22.30;69.40;;;;;;5055169;28;20055;-67
2022/05/18 10:23:41;;;;;;;15.70;5.05;;;22.30;69.80;;;;;;5078333;28;20028;-69
2022/05/18 10:26:21;;;;;;;17.73;5.55;;;22.30;70.30;;;;;;5085452;28;20482;-68
2022/05/18 10:29:14;;;;;;;10.73;4.30;;;22.30;70.50;;;;;;5084727;28;20061;-68
2022/05/18 10:31:46;;;;;;;15.43;5.57;;;22.30;70.40;;;;;;5075206;28;20108;-68
2022/05/18 10:34:24;;;;;;;13.65;4.53;;;22.30;70.50;;;;;;5080375;28;20376;-68
2022/05/18 10:36:55;;;;;;;14.40;4.93;;;22.30;70.30;;;;;;5084363;28;20028;-68
2022/05/18 10:39:41;;;;;;;15.88;5.70;;;22.30;70.60;;;;;;5081408;28;20024;-68
2022/05/18 10:42:14;;;;;;;17.20;5.13;;;22.30;70.70;;;;;;5079590;28;20027;-68
2022/05/18 10:44:42;;;;;;;10.55;5.18;;;22.30;70.70;;;;;;5082202;28;20024;-68
2022/05/18 10:47:36;;;;;;;13.07;4.65;;;22.30;70.70;;;;;;5076407;28;20036;-69
2022/05/18 10:50:37;;;;;;;16.55;6.63;;;22.30;70.60;;;;;;5086705;28;20502;-68
2022/05/18 10:53:15;;;;;;;13.20;5.88;;;22.30;70.70;;;;;;5081915;28;20041;-69
2022/05/18 10:55:57;;;;;;;18.17;5.57;;;22.20;70.90;;;;;;5081215;28;20028;-68
2022/05/18 10:58:45;;;;;;;12.43;5.40;;;22.30;71.00;;;;;;5084791;28;20473;-68
2022/05/18 11:01:26;;;;;;;29.70;7.45;;;22.20;70.90;;;;;;5082415;28;20470;-68
2022/05/18 11:04:12;;;;;;;20.08;6.30;;;22.20;71.20;;;;;;5080077;28;20068;-68
2022/05/18 11:06:41;;;;;;;19.02;6.00;;;22.20;72.10;;;;;;5082165;28;20160;-68
2022/05/18 11:09:27;;;;;;;19.40;6.60;;;22.20;72.40;;;;;;5083203;28;20035;-69
2022/05/18 11:12:15;;;;;;;26.27;6.50;;;22.20;72.30;;;;;;5081073;28;20538;-69
2022/05/18 11:14:55;;;;;;;18.67;6.22;;;22.30;72.10;;;;;;5082898;28;20455;-69
2022/05/18 11:17:34;;;;;;;17.08;4.57;;;22.20;71.80;;;;;;5078262;28;20402;-68
2022/05/18 11:20:30;;;;;;;16.73;5.43;;;22.30;71.80;;;;;;5073355;28;20484;-69
2022/05/18 11:23:16;;;;;;;13.77;3.85;;;22.20;71.80;;;;;;5075257;28;20041;-70
2022/05/18 11:25:42;;;;;;;12.27;4.97;;;22.20;71.80;;;;;;5077005;28;20127;-70
2022/05/18 11:28:29;;;;;;;14.98;4.50;;;22.30;72.10;;;;;;5086593;28;20102;-71
2022/05/18 11:31:02;;;;;;;18.38;5.68;;;22.30;72.10;;;;;;5083543;28;20116;-70
2022/05/18 11:33:54;;;;;;;14.38;3.92;;;22.20;72.00;;;;;;5078182;28;20052;-68
2022/05/18 11:36:59;;;;;;;10.95;3.92;;;22.20;72.20;;;;;;5088050;28;20056;-70
2022/05/18 11:39:25;;;;;;;14.43;4.60;;;22.20;72.30;;;;;;5084307;28;20025;-69
2022/05/18 11:42:07;;;;;;;12.85;4.82;;;22.20;72.30;;;;;;5085972;28;20042;-71
2022/05/18 11:44:41;;;;;;;9.27;3.35;;;22.20;72.10;;;;;;5082927;28;20025;-70
2022/05/18 11:47:41;;;;;;;10.20;3.97;;;22.20;72.30;;;;;;5077647;28;20036;-70
2022/05/18 11:50:28;;;;;;;14.98;3.20;;;22.20;72.30;;;;;;5076047;28;20035;-68
2022/05/18 11:53:08;;;;;;;10.48;2.95;;;22.20;72.40;;;;;;5081018;28;20125;-69
2022/05/18 11:55:50;;;;;;;15.70;3.47;;;22.10;72.50;;;;;;5078823;28;20473;-68
2022/05/18 11:59:10;;;;;;;13.25;4.90;;;22.10;72.40;;;;;;5079050;28;20028;-69
2022/05/18 12:01:57;;;;;;;8.48;2.40;;;22.10;72.30;;;;;;5079862;28;20089;-69
2022/05/18 12:05:05;;;;;;;13.63;2.60;;;22.10;72.20;;;;;;5081299;28;20029;-68
2022/05/18 12:07:44;;;;;;;11.98;3.05;;;22.10;72.20;;;;;;5079411;28;20045;-69
2022/05/18 12:10:40;;;;;;;10.70;2.55;;;22.10;72.10;;;;;;5082530;28;20036;-68
2022/05/18 12:13:29;;;;;;;9.05;4.13;;;22.10;72.10;;;;;;5082788;28;20484;-69
2022/05/18 12:16:21;;;;;;;7.82;2.53;;;22.10;72.10;;;;;;5077972;28;20118;-68
2022/05/18 12:18:58;;;;;;;8.60;2.63;;;22.10;72.10;;;;;;5076583;28;20017;-68
2022/05/18 12:21:34;;;;;;;9.75;2.63;;;22.10;72.20;;;;;;5110767;27;20363;-69
2022/05/18 12:24:05;;;;;;;12.55;2.97;;;22.10;72.20;;;;;;5084497;28;20508;-69
2022/05/18 12:26:35;;;;;;;8.43;2.53;;;22.10;72.10;;;;;;5074155;28;20122;-68
2022/05/18 12:29:04;;;;;;;7.90;2.05;;;22.10;72.20;;;;;;5076348;28;20032;-68
2022/05/18 12:31:31;;;;;;;6.57;2.65;;;22.10;72.20;;;;;;5081256;28;20390;-69
2022/05/18 12:34:13;;;;;;;9.48;3.13;;;22.10;72.40;;;;;;5079508;28;20067;-69
2022/05/18 12:36:46;;;;;;;6.10;2.67;;;22.10;72.50;;;;;;5079668;28;20028;-68
2022/05/18 12:39:19;;;;;;;4.72;2.45;;;22.10;72.50;;;;;;5085795;28;20105;-69
2022/05/18 12:41:50;;;;;;;6.95;2.38;;;22.10;72.40;;;;;;5080700;28;20111;-69
2022/05/18 12:44:40;;;;;;;8.90;2.50;;;22.10;72.40;;;;;;5077007;28;20157;-68
2022/05/18 12:47:29;;;;;;;7.57;2.22;;;22.10;72.40;;;;;;5076245;28;20043;-69
2022/05/18 12:50:11;;;;;;;12.95;3.33;;;22.10;72.40;;;;;;5079814;28;20052;-68
2022/05/18 12:52:56;;;;;;;10.45;2.53;;;22.10;72.80;;;;;;5082673;28;20111;-68
2022/05/18 12:55:39;;;;;;;9.25;2.58;;;22.00;72.70;;;;;;5079506;28;20035;-69
2022/05/18 12:58:24;;;;;;;7.90;1.73;;;22.10;72.80;;;;;;5082561;28;20107;-69
2022/05/18 13:01:01;;;;;;;10.20;2.95;;;22.10;72.80;;;;;;5077475;28;20073;-69
2022/05/18 13:03:44;;;;;;;8.63;2.35;;;22.00;72.80;;;;;;5082781;28;20040;-68
2022/05/18 13:06:24;;;;;;;10.38;2.30;;;22.00;72.90;;;;;;5076624;28;20376;-68
2022/05/18 13:08:59;;;;;;;9.95;3.17;;;22.10;72.80;;;;;;5078384;28;20017;-68
2022/05/18 13:11:45;;;;;;;6.15;1.75;;;22.00;72.60;;;;;;5080006;28;20031;-68
2022/05/18 13:14:18;;;;;;;15.82;2.22;;;22.10;72.60;;;;;;5084483;28;20024;-68
2022/05/18 13:16:44;;;;;;;6.20;2.15;;;22.10;72.60;;;;;;5079176;28;20048;-68
2022/05/18 13:19:32;;;;;;;6.80;2.20;;;22.00;72.60;;;;;;5075951;28;20047;-69
2022/05/18 13:22:17;;;;;;;7.25;1.55;;;22.00;72.80;;;;;;5077331;28;20021;-69